Time;durP1;ratioP1;P1;durP2;ratioP2;P2;SDS_P1;SDS_P2;PMS_P1;PMS_P2;Temp;Humidity;BMP_temperature;BMP_pressure;BME280_temperature;BME280_humidity;BME280_pressure;Samples;Min_cycle;Max_cycle;Signal;HPM_P1;HPM_P2
2022/05/07 00:00:38;;;;;;;5.03;3.67;;;;;;;;;;5041948;28;20206;-37
2022/05/07 00:03:07;;;;;;;3.83;3.53;;;;;;;;;;5050588;28;20202;-38
2022/05/07 00:05:34;;;;;;;7.33;4.37;;;;;;;;;;5050913;28;20260;-37
2022/05/07 00:08:03;;;;;;;6.00;3.90;;;;;;;;;;5037568;28;20230;-38
2022/05/07 00:10:30;;;;;;;5.00;4.00;;;;;;;;;;5029795;28;20200;-36
2022/05/07 00:12:57;;;;;;;4.70;4.20;;;;;;;;;;5037447;28;20203;-34
2022/05/07 00:15:24;;;;;;;4.30;3.57;;;;;;;;;;5037636;28;20279;-36
2022/05/07 00:18:04;;;;;;;5.10;4.23;;;;;;;;;;5031302;28;20203;-38
2022/05/07 00:20:33;;;;;;;4.77;4.30;;;;;;;;;;5039599;28;20204;-30
2022/05/07 00:23:00;;;;;;;4.13;3.60;;;;;;;;;;5036777;28;20209;-36
2022/05/07 00:25:30;;;;;;;4.03;3.73;;;;;;;;;;5037435;28;20233;-36
2022/05/07 00:27:57;;;;;;;6.53;3.57;;;;;;;;;;5050423;28;20534;-34
2022/05/07 00:30:24;;;;;;;4.17;3.40;;;;;;;;;;5034508;28;20199;-35
2022/05/07 00:32:51;;;;;;;5.27;3.90;;;;;;;;;;5049552;28;20205;-40
2022/05/07 00:35:18;;;;;;;5.60;3.80;;;;;;;;;;5054469;28;20710;-38
2022/05/07 00:37:47;;;;;;;3.97;3.50;;;;;;;;;;5042671;28;20219;-38
2022/05/07 00:40:14;;;;;;;4.50;4.10;;;;;;;;;;5034157;28;20240;-36
2022/05/07 00:42:41;;;;;;;4.53;4.13;;;;;;;;;;5051592;28;20214;-38
2022/05/07 00:45:08;;;;;;;4.57;3.43;;;;;;;;;;5044937;28;20209;-34
2022/05/07 00:47:38;;;;;;;3.70;3.40;;;;;;;;;;5037060;28;20282;-37
2022/05/07 00:52:48;;;;;;;4.53;3.50;;;;;;;;;;4988388;28;20206;-37
2022/05/07 00:55:16;;;;;;;3.57;3.07;;;;;;;;;;5035492;28;20214;-37
2022/05/07 00:57:43;;;;;;;5.53;3.63;;;;;;;;;;5051268;28;20214;-36
2022/05/07 01:00:11;;;;;;;3.67;3.37;;;;;;;;;;5043664;28;20206;-35
2022/05/07 01:02:39;;;;;;;4.00;3.60;;;;;;;;;;5043685;28;20289;-34
2022/05/07 01:05:06;;;;;;;3.50;3.17;;;;;;;;;;5032603;28;20202;-37
2022/05/07 01:07:34;;;;;;;4.23;3.83;;;;;;;;;;5052708;28;20202;-35
2022/05/07 01:10:06;;;;;;;3.80;3.47;;;;;;;;;;5053132;28;20781;-35
2022/05/07 01:12:35;;;;;;;4.07;3.67;;;;;;;;;;5057913;28;20205;-35
2022/05/07 01:15:02;;;;;;;4.27;3.60;;;;;;;;;;5047609;28;20213;-37
2022/05/07 01:17:32;;;;;;;3.13;2.93;;;;;;;;;;5052814;28;20210;-35
2022/05/07 01:19:59;;;;;;;4.70;3.30;;;;;;;;;;5050826;28;20206;-40
2022/05/07 01:22:28;;;;;;;3.97;3.53;;;;;;;;;;5045330;28;20217;-38
2022/05/07 01:24:55;;;;;;;3.80;3.50;;;;;;;;;;5052495;28;20685;-33
2022/05/07 01:27:24;;;;;;;4.50;4.10;;;;;;;;;;5052453;28;20679;-36
2022/05/07 01:29:51;;;;;;;3.50;3.20;;;;;;;;;;5041831;28;20246;-30
2022/05/07 01:32:18;;;;;;;7.23;3.37;;;;;;;;;;5048025;28;20202;-35
2022/05/07 01:34:45;;;;;;;3.83;3.50;;;;;;;;;;5049462;28;20267;-41
2022/05/07 01:37:12;;;;;;;3.47;3.17;;;;;;;;;;5049827;28;20237;-34
2022/05/07 01:39:41;;;;;;;3.33;3.03;;;;;;;;;;5043526;28;20198;-38
2022/05/07 01:42:08;;;;;;;3.27;2.97;;;;;;;;;;5042315;28;20586;-33
2022/05/07 01:44:36;;;;;;;3.37;2.87;;;;;;;;;;5052094;28;20221;-38
2022/05/07 01:49:47;;;;;;;3.20;3.00;;;;;;;;;;5037512;28;20313;-39
2022/05/07 01:52:14;;;;;;;5.73;3.40;;;;;;;;;;5046404;28;20219;-35
2022/05/07 01:54:43;;;;;;;3.80;3.50;;;;;;;;;;5032280;28;20199;-35
2022/05/07 01:57:10;;;;;;;4.77;3.57;;;;;;;;;;5044060;28;20722;-36
2022/05/07 01:59:37;;;;;;;5.10;4.00;;;;;;;;;;5051963;28;20209;-34
2022/05/07 02:02:05;;;;;;;7.53;3.80;;;;;;;;;;5052838;28;20480;-34
2022/05/07 02:04:33;;;;;;;4.20;3.57;;;;;;;;;;5052454;28;20300;-33
2022/05/07 02:07:00;;;;;;;4.50;3.20;;;;;;;;;;5043281;28;20283;-40
2022/05/07 02:09:27;;;;;;;4.97;3.80;;;;;;;;;;5044014;28;20315;-32
2022/05/07 02:11:56;;;;;;;4.63;4.17;;;;;;;;;;5046599;28;20206;-34
2022/05/07 02:14:23;;;;;;;4.40;3.60;;;;;;;;;;5044555;28;20203;-39
2022/05/07 02:16:50;;;;;;;3.90;3.40;;;;;;;;;;5050457;28;20225;-36
2022/05/07 02:19:17;;;;;;;3.37;3.07;;;;;;;;;;5047849;28;20218;-39
2022/05/07 02:21:44;;;;;;;3.83;3.53;;;;;;;;;;5049094;28;20206;-38
2022/05/07 02:24:11;;;;;;;5.30;3.50;;;;;;;;;;5037628;28;20214;-31
2022/05/07 02:26:38;;;;;;;3.97;3.67;;;;;;;;;;5052424;28;20242;-35
2022/05/07 02:29:07;;;;;;;8.00;4.30;;;;;;;;;;5047186;28;20246;-35
2022/05/07 02:31:34;;;;;;;4.13;3.73;;;;;;;;;;5041590;28;20735;-34
2022/05/07 02:34:01;;;;;;;4.40;3.97;;;;;;;;;;5051206;28;20210;-34
2022/05/07 02:36:28;;;;;;;4.17;3.47;;;;;;;;;;5053721;28;20697;-36
2022/05/07 02:38:55;;;;;;;3.07;2.87;;;;;;;;;;5041233;28;20203;-43
2022/05/07 02:44:08;;;;;;;3.13;2.90;;;;;;;;;;5037296;28;20214;-34
2022/05/07 02:46:35;;;;;;;4.60;3.57;;;;;;;;;;5048044;28;20223;-40
2022/05/07 02:49:04;;;;;;;5.30;3.40;;;;;;;;;;5051048;28;20723;-40
2022/05/07 02:51:32;;;;;;;3.37;3.07;;;;;;;;;;5050772;28;20218;-32
2022/05/07 02:53:59;;;;;;;5.03;4.27;;;;;;;;;;5045472;28;20207;-32
2022/05/07 02:56:26;;;;;;;4.10;3.70;;;;;;;;;;5037668;28;20310;-37
2022/05/07 02:58:53;;;;;;;4.50;3.77;;;;;;;;;;5050515;28;20202;-37
2022/05/07 03:01:21;;;;;;;4.10;3.70;;;;;;;;;;5042358;28;20539;-37
2022/05/07 03:03:48;;;;;;;4.50;4.10;;;;;;;;;;5051170;28;20220;-34
2022/05/07 03:06:16;;;;;;;3.77;3.47;;;;;;;;;;5045117;28;20237;-33
2022/05/07 03:08:43;;;;;;;3.77;3.40;;;;;;;;;;5049811;28;20899;-35
2022/05/07 03:11:11;;;;;;;3.57;3.37;;;;;;;;;;5050040;28;20205;-42
2022/05/07 03:13:38;;;;;;;5.17;3.03;;;;;;;;;;5049626;28;20663;-31
2022/05/07 03:16:06;;;;;;;4.70;3.90;;;;;;;;;;5042007;28;20533;-39
2022/05/07 03:18:35;;;;;;;3.50;3.20;;;;;;;;;;5050826;28;20214;-34
2022/05/07 03:21:02;;;;;;;3.80;3.43;;;;;;;;;;5046881;28;20202;-34
2022/05/07 03:23:29;;;;;;;3.87;3.57;;;;;;;;;;5041868;28;20224;-36
2022/05/07 03:25:57;;;;;;;3.37;3.03;;;;;;;;;;5047446;28;20534;-36
2022/05/07 03:28:24;;;;;;;3.40;3.10;;;;;;;;;;5047415;28;20253;-34
2022/05/07 03:30:51;;;;;;;4.40;3.13;;;;;;;;;;5041851;28;20198;-36
2022/05/07 03:33:18;;;;;;;5.90;3.97;;;;;;;;;;5050946;28;20817;-35
2022/05/07 03:35:47;;;;;;;4.60;4.20;;;;;;;;;;5050437;28;20233;-37
2022/05/07 03:38:14;;;;;;;5.57;4.63;;;;;;;;;;5049510;28;20253;-35
2022/05/07 03:40:41;;;;;;;4.17;3.77;;;;;;;;;;5048024;28;20198;-39
2022/05/07 03:43:08;;;;;;;4.03;3.63;;;;;;;;;;5051910;28;20210;-39
2022/05/07 03:45:35;;;;;;;3.33;3.03;;;;;;;;;;5040663;28;20225;-35
2022/05/07 03:48:03;;;;;;;4.50;3.40;;;;;;;;;;5049981;28;20209;-34
2022/05/07 03:50:30;;;;;;;3.60;3.30;;;;;;;;;;5047064;28;20303;-33
2022/05/07 03:55:44;;;;;;;4.87;3.67;;;;;;;;;;5045000;28;20327;-36
2022/05/07 03:58:15;;;;;;;3.83;3.43;;;;;;;;;;5048503;28;20205;-34
2022/05/07 04:00:42;;;;;;;4.60;3.80;;;;;;;;;;5031599;28;20719;-31
2022/05/07 04:03:09;;;;;;;4.40;4.00;;;;;;;;;;5030459;28;20207;-35
2022/05/07 04:05:36;;;;;;;4.13;3.73;;;;;;;;;;5045652;28;20236;-32
2022/05/07 04:08:05;;;;;;;4.73;4.23;;;;;;;;;;5049025;28;20206;-36
2022/05/07 04:10:32;;;;;;;3.93;3.63;;;;;;;;;;5038448;28;20222;-35
2022/05/07 04:12:59;;;;;;;3.70;3.40;;;;;;;;;;5053043;28;20295;-32
2022/05/07 04:15:26;;;;;;;3.50;3.10;;;;;;;;;;5040174;28;20222;-35
2022/05/07 04:17:54;;;;;;;5.53;3.43;;;;;;;;;;5055987;28;20198;-35
2022/05/07 04:20:21;;;;;;;4.03;3.57;;;;;;;;;;5051283;28;20202;-36
2022/05/07 04:22:48;;;;;;;3.80;3.47;;;;;;;;;;5046864;28;20202;-39
2022/05/07 04:25:16;;;;;;;2.90;2.70;;;;;;;;;;5049990;28;20202;-36
2022/05/07 04:27:43;;;;;;;4.23;2.97;;;;;;;;;;5049629;28;20659;-30
2022/05/07 04:30:11;;;;;;;2.87;2.67;;;;;;;;;;5041550;28;20221;-32
2022/05/07 04:32:38;;;;;;;3.50;3.20;;;;;;;;;;5038297;28;20206;-33
2022/05/07 04:35:06;;;;;;;4.00;3.43;;;;;;;;;;5038377;28;20676;-37
2022/05/07 04:37:33;;;;;;;4.30;3.90;;;;;;;;;;5054894;28;20613;-34
2022/05/07 04:40:00;;;;;;;4.00;3.60;;;;;;;;;;5047918;28;20199;-37
2022/05/07 04:42:29;;;;;;;3.87;3.47;;;;;;;;;;5053580;28;20841;-34
2022/05/07 04:44:56;;;;;;;6.57;3.63;;;;;;;;;;5053513;28;20653;-32
2022/05/07 04:47:23;;;;;;;3.53;3.23;;;;;;;;;;5056084;28;20599;-34
2022/05/07 04:49:50;;;;;;;3.60;3.30;;;;;;;;;;5053928;28;20224;-37
2022/05/07 04:52:17;;;;;;;5.37;3.73;;;;;;;;;;5045753;28;20214;-38
2022/05/07 04:54:44;;;;;;;4.10;3.73;;;;;;;;;;5035398;28;20203;-36
2022/05/07 04:57:11;;;;;;;3.87;3.57;;;;;;;;;;5052149;28;20581;-34
2022/05/07 04:59:40;;;;;;;3.67;3.23;;;;;;;;;;5053317;28;20202;-33
2022/05/07 05:02:07;;;;;;;4.00;3.63;;;;;;;;;;5055448;28;20202;-37
2022/05/07 05:04:34;;;;;;;4.07;3.50;;;;;;;;;;5055595;28;20225;-38
2022/05/07 05:07:01;;;;;;;4.13;3.73;;;;;;;;;;5053067;28;20232;-36
2022/05/07 05:09:28;;;;;;;3.83;3.53;;;;;;;;;;5055299;28;20237;-39
2022/05/07 05:11:55;;;;;;;3.97;3.67;;;;;;;;;;5056599;28;20293;-37
2022/05/07 05:17:09;;;;;;;4.13;3.80;;;;;;;;;;5051789;28;20225;-40
2022/05/07 05:19:36;;;;;;;4.17;3.70;;;;;;;;;;5050201;28;20633;-34
2022/05/07 05:22:04;;;;;;;3.67;3.37;;;;;;;;;;5046561;28;20208;-35
2022/05/07 05:24:31;;;;;;;5.87;3.73;;;;;;;;;;5045732;28;20197;-40
2022/05/07 05:26:58;;;;;;;4.20;3.80;;;;;;;;;;5055402;28;20233;-37
2022/05/07 05:29:25;;;;;;;4.17;3.70;;;;;;;;;;5044807;28;20301;-38
2022/05/07 05:31:52;;;;;;;4.90;4.20;;;;;;;;;;5045889;28;20206;-33
2022/05/07 05:34:21;;;;;;;4.30;3.87;;;;;;;;;;5054817;28;20214;-39
2022/05/07 05:36:48;;;;;;;5.13;3.43;;;;;;;;;;5056410;28;20719;-39
2022/05/07 05:39:16;;;;;;;4.07;3.77;;;;;;;;;;5048303;28;20210;-38
2022/05/07 05:41:44;;;;;;;4.37;3.97;;;;;;;;;;5052189;28;20633;-31
2022/05/07 05:44:11;;;;;;;5.07;3.80;;;;;;;;;;5048879;28;20264;-41
2022/05/07 05:46:38;;;;;;;4.40;4.00;;;;;;;;;;5051829;28;20232;-34
2022/05/07 05:49:05;;;;;;;4.60;4.20;;;;;;;;;;5054509;28;20217;-34
2022/05/07 05:51:34;;;;;;;4.17;3.77;;;;;;;;;;5050327;28;20197;-38
2022/05/07 05:54:01;;;;;;;4.57;4.07;;;;;;;;;;5053739;28;20198;-34
2022/05/07 05:56:40;;;;;;;4.80;4.37;;;;;;;;;;5051126;28;20230;-39
2022/05/07 05:59:07;;;;;;;5.23;4.33;;;;;;;;;;5052794;28;20721;-38
2022/05/07 06:01:34;;;;;;;4.93;4.43;;;;;;;;;;5050681;28;20206;-32
2022/05/07 06:04:01;;;;;;;5.87;4.37;;;;;;;;;;5054052;28;20213;-35
2022/05/07 06:06:29;;;;;;;5.27;3.83;;;;;;;;;;5049792;28;20253;-37
2022/05/07 06:08:57;;;;;;;4.93;4.43;;;;;;;;;;5047825;28;20206;-34
2022/05/07 06:11:24;;;;;;;5.43;4.47;;;;;;;;;;5039568;28;20201;-39
2022/05/07 06:13:51;;;;;;;5.20;4.50;;;;;;;;;;5044196;28;20214;-33
2022/05/07 06:16:18;;;;;;;6.77;4.90;;;;;;;;;;5049583;28;20230;-39
2022/05/07 06:18:46;;;;;;;5.53;4.57;;;;;;;;;;5055623;28;20213;-38
2022/05/07 06:21:13;;;;;;;6.87;5.77;;;;;;;;;;5054201;28;20554;-38
2022/05/07 06:23:40;;;;;;;8.47;7.00;;;;;;;;;;5043907;28;20214;-37
2022/05/07 06:28:53;;;;;;;7.70;6.33;;;;;;;;;;5051546;28;20355;-34
2022/05/07 06:31:20;;;;;;;8.53;6.77;;;;;;;;;;5054259;28;20283;-35
2022/05/07 06:33:48;;;;;;;6.73;6.03;;;;;;;;;;5052570;28;20218;-31
2022/05/07 06:36:15;;;;;;;10.93;6.20;;;;;;;;;;5035780;28;20230;-35
2022/05/07 06:38:42;;;;;;;7.03;6.20;;;;;;;;;;5046145;28;20205;-39
2022/05/07 06:41:10;;;;;;;7.50;5.60;;;;;;;;;;5034587;28;20205;-37
2022/05/07 06:43:37;;;;;;;9.53;6.90;;;;;;;;;;5047950;28;20212;-33
2022/05/07 06:46:05;;;;;;;6.40;5.80;;;;;;;;;;5053982;28;20218;-35
2022/05/07 06:48:32;;;;;;;7.00;6.17;;;;;;;;;;5052902;28;20224;-38
2022/05/07 06:50:59;;;;;;;7.23;5.70;;;;;;;;;;5053706;28;20605;-35
2022/05/07 06:53:26;;;;;;;8.37;6.30;;;;;;;;;;5043293;28;20210;-36
2022/05/07 06:55:58;;;;;;;7.17;6.40;;;;;;;;;;5048561;28;20226;-38
2022/05/07 06:58:27;;;;;;;6.60;6.00;;;;;;;;;;5051751;28;20198;-33
2022/05/07 07:00:54;;;;;;;7.77;6.97;;;;;;;;;;5052202;28;20198;-29
2022/05/07 07:03:21;;;;;;;6.27;5.67;;;;;;;;;;5053916;28;20206;-38
2022/05/07 07:05:50;;;;;;;8.30;5.60;;;;;;;;;;5052623;28;20230;-37
2022/05/07 07:08:17;;;;;;;9.93;6.17;;;;;;;;;;5053408;28;20202;-35
2022/05/07 07:10:45;;;;;;;7.33;6.53;;;;;;;;;;5042320;28;20222;-33
2022/05/07 07:13:12;;;;;;;6.43;5.83;;;;;;;;;;5051395;28;20206;-34
2022/05/07 07:15:41;;;;;;;7.93;5.87;;;;;;;;;;5043218;28;20241;-38
2022/05/07 07:18:10;;;;;;;6.87;6.13;;;;;;;;;;5052982;28;20221;-39
2022/05/07 07:20:39;;;;;;;6.43;5.83;;;;;;;;;;5054506;28;20208;-37
2022/05/07 07:23:06;;;;;;;7.00;6.30;;;;;;;;;;5052773;28;20211;-36
2022/05/07 07:25:33;;;;;;;6.47;5.87;;;;;;;;;;5049772;28;20231;-36
2022/05/07 07:28:01;;;;;;;8.53;6.13;;;;;;;;;;5047821;28;20215;-36
2022/05/07 07:30:28;;;;;;;8.80;5.70;;;;;;;;;;5046426;28;20227;-35
2022/05/07 07:32:56;;;;;;;7.13;6.23;;;;;;;;;;5052418;28;20553;-36
2022/05/07 07:35:23;;;;;;;7.10;6.40;;;;;;;;;;5050559;28;20231;-39
2022/05/07 07:37:51;;;;;;;8.67;6.90;;;;;;;;;;5047643;28;20203;-34
2022/05/07 07:40:18;;;;;;;8.50;6.83;;;;;;;;;;5052215;28;20209;-33
2022/05/07 07:42:45;;;;;;;7.50;6.70;;;;;;;;;;5049004;28;20210;-35
2022/05/07 07:48:04;;;;;;;9.23;6.83;;;;;;;;;;5048849;28;20215;-34
2022/05/07 07:50:32;;;;;;;7.83;6.87;;;;;;;;;;5035751;28;20230;-37
2022/05/07 07:53:00;;;;;;;6.70;5.97;;;;;;;;;;5044132;28;20211;-34
2022/05/07 07:55:27;;;;;;;6.73;6.03;;;;;;;;;;5044615;28;20226;-34
2022/05/07 07:57:55;;;;;;;6.67;5.97;;;;;;;;;;5040079;28;20211;-35
2022/05/07 08:00:23;;;;;;;7.53;6.63;;;;;;;;;;5047230;28;20203;-34
2022/05/07 08:02:50;;;;;;;7.57;6.20;;;;;;;;;;5050987;28;20230;-32
2022/05/07 08:05:21;;;;;;;7.70;6.00;;;;;;;;;;5040293;28;20217;-31
2022/05/07 08:13:19;;;;;;;8.33;6.27;;;;;;;;;;5050936;28;20664;-33
2022/05/07 08:15:47;;;;;;;7.17;6.27;;;;;;;;;;5037139;28;20259;-38
2022/05/07 08:18:14;;;;;;;8.00;6.57;;;;;;;;;;5057659;28;20207;-36
2022/05/07 08:20:43;;;;;;;8.17;6.13;;;;;;;;;;5049965;28;20486;-32
2022/05/07 08:23:11;;;;;;;9.47;6.57;;;;;;;;;;5051368;28;20233;-38
2022/05/07 08:25:38;;;;;;;8.20;6.30;;;;;;;;;;5047164;28;20231;-37
2022/05/07 08:28:06;;;;;;;11.27;6.37;;;;;;;;;;5047987;28;20301;-38
2022/05/07 08:30:33;;;;;;;9.00;6.43;;;;;;;;;;5042808;28;20227;-35
2022/05/07 08:33:00;;;;;;;7.33;6.43;;;;;;;;;;5050025;28;20204;-35
2022/05/07 08:35:28;;;;;;;7.03;6.43;;;;;;;;;;5049533;28;20222;-36
2022/05/07 08:37:57;;;;;;;8.17;6.20;;;;;;;;;;5049338;28;20203;-38
2022/05/07 08:40:24;;;;;;;9.97;6.07;;;;;;;;;;5050132;28;20219;-36
2022/05/07 08:42:51;;;;;;;9.40;6.27;;;;;;;;;;5041642;28;20203;-37
2022/05/07 08:45:19;;;;;;;8.40;6.23;;;;;;;;;;5048366;28;20355;-34
2022/05/07 08:47:47;;;;;;;8.97;6.83;;;;;;;;;;5051592;28;20212;-32
2022/05/07 08:50:21;;;;;;;8.10;6.53;;;;;;;;;;5049786;28;20270;-34
2022/05/07 08:52:49;;;;;;;7.87;6.60;;;;;;;;;;5048800;28;20214;-34
2022/05/07 08:55:18;;;;;;;6.87;6.17;;;;;;;;;;5051304;28;20265;-36
2022/05/07 08:57:46;;;;;;;7.30;6.30;;;;;;;;;;5049403;28;20214;-35
2022/05/07 09:00:14;;;;;;;8.97;6.37;;;;;;;;;;5054837;28;20204;-33
2022/05/07 09:02:42;;;;;;;6.07;5.47;;;;;;;;;;5052621;28;20275;-37
2022/05/07 09:05:10;;;;;;;7.10;5.93;;;;;;;;;;5054161;28;20306;-37
2022/05/07 09:07:39;;;;;;;8.07;6.47;;;;;;;;;;5053478;28;20209;-32
2022/05/07 09:10:11;;;;;;;7.43;5.83;;;;;;;;;;5050753;28;20789;-32
2022/05/07 09:12:40;;;;;;;9.80;6.07;;;;;;;;;;5052631;28;20409;-35
2022/05/07 09:15:08;;;;;;;6.23;5.60;;;;;;;;;;5054390;28;20853;-38
2022/05/07 09:17:36;;;;;;;8.90;5.53;;;;;;;;;;5052484;28;20207;-31
2022/05/07 09:20:13;;;;;;;9.00;5.40;;;;;;;;;;5055376;28;20260;-32
2022/05/07 09:22:49;;;;;;;7.23;4.17;;;;;;;;;;5056918;28;20239;-35
2022/05/07 09:25:21;;;;;;;4.20;3.80;;;;;;;;;;5054520;28;20207;-36
2022/05/07 09:27:51;;;;;;;5.80;4.50;;;;;;;;;;5049472;28;20195;-35
2022/05/07 09:30:22;;;;;;;7.30;4.33;;;;;;;;;;5054880;28;20720;-40
2022/05/07 09:32:50;;;;;;;4.10;3.77;;;;;;;;;;5054707;28;20197;-34
2022/05/07 09:38:03;;;;;;;3.70;3.40;;;;;;;;;;5053168;28;20265;-34
2022/05/07 09:40:31;;;;;;;5.03;3.40;;;;;;;;;;5054762;28;20309;-38
2022/05/07 09:42:59;;;;;;;3.40;3.10;;;;;;;;;;5049465;28;20208;-38
2022/05/07 09:45:27;;;;;;;4.53;3.07;;;;;;;;;;5054189;28;20223;-37
2022/05/07 09:47:55;;;;;;;4.70;3.10;;;;;;;;;;5054814;28;20662;-32
2022/05/07 09:50:24;;;;;;;3.67;2.63;;;;;;;;;;5052037;28;20222;-37
2022/05/07 09:58:22;;;;;;;3.77;2.97;;;;;;;;;;5051979;28;20195;-32
2022/05/07 10:00:57;;;;;;;4.03;3.00;;;;;;;;;;5053801;28;20211;-35
2022/05/07 10:03:27;;;;;;;4.07;2.83;;;;;;;;;;5038613;28;20226;-32
2022/05/07 10:06:04;;;;;;;4.57;2.80;;;;;;;;;;5051834;28;20228;-30
2022/05/07 10:08:42;;;;;;;4.63;3.17;;;;;;;;;;5049916;28;20206;-40
2022/05/07 10:11:10;;;;;;;3.60;2.50;;;;;;;;;;5051798;28;20586;-35
2022/05/07 10:13:39;;;;;;;3.83;2.80;;;;;;;;;;5051209;28;20607;-37
2022/05/07 10:16:07;;;;;;;8.53;3.07;;;;;;;;;;5052749;28;20222;-40
2022/05/07 10:18:35;;;;;;;4.43;2.80;;;;;;;;;;5052397;28;20206;-34
2022/05/07 10:21:11;;;;;;;9.47;3.23;;;;;;;;;;5053881;28;20206;-35
2022/05/07 10:23:39;;;;;;;4.50;3.23;;;;;;;;;;5052593;28;20210;-36
2022/05/07 10:26:06;;;;;;;5.63;3.30;;;;;;;;;;5043819;28;20237;-33
2022/05/07 10:28:42;;;;;;;2.60;2.40;;;;;;;;;;5048947;28;20755;-32
2022/05/07 10:31:17;;;;;;;3.13;2.70;;;;;;;;;;5053275;28;20261;-32
2022/05/07 10:33:45;;;;;;;2.70;2.50;;;;;;;;;;5053185;28;20206;-35
2022/05/07 10:36:12;;;;;;;3.00;2.60;;;;;;;;;;5050734;28;20244;-36
2022/05/07 10:38:42;;;;;;;2.90;2.60;;;;;;;;;;5052036;28;20293;-37
2022/05/07 10:41:24;;;;;;;3.83;2.50;;;;;;;;;;5051213;28;20208;-37
2022/05/07 10:44:03;;;;;;;4.07;2.17;;;;;;;;;;5051628;28;20202;-37
2022/05/07 10:46:39;;;;;;;3.33;2.70;;;;;;;;;;5052784;28;20566;-33
2022/05/07 10:49:07;;;;;;;5.53;2.57;;;;;;;;;;5053144;28;20220;-33
2022/05/07 10:51:35;;;;;;;10.93;2.90;;;;;;;;;;5053746;28;20248;-33
2022/05/07 10:54:03;;;;;;;2.40;2.20;;;;;;;;;;5049043;28;20202;-34
2022/05/07 10:56:32;;;;;;;2.77;2.43;;;;;;;;;;5047491;28;20278;-31
2022/05/07 10:58:59;;;;;;;2.43;2.33;;;;;;;;;;5051516;28;20220;-35
2022/05/07 11:01:28;;;;;;;3.03;2.50;;;;;;;;;;5052397;28;20198;-37
2022/05/07 11:04:02;;;;;;;4.40;2.13;;;;;;;;;;5049987;28;20202;-40
2022/05/07 11:06:30;;;;;;;2.40;2.20;;;;;;;;;;5047710;28;20232;-39
2022/05/07 11:08:57;;;;;;;3.00;2.53;;;;;;;;;;5051898;28;20293;-36
2022/05/07 11:11:24;;;;;;;3.00;2.30;;;;;;;;;;5050419;28;20222;-37
2022/05/07 11:13:52;;;;;;;3.53;2.40;;;;;;;;;;5051066;28;20223;-33
2022/05/07 11:16:21;;;;;;;2.73;2.17;;;;;;;;;;5052065;28;20222;-37
2022/05/07 11:18:51;;;;;;;2.93;2.17;;;;;;;;;;5052518;28;20209;-30
2022/05/07 11:21:19;;;;;;;2.57;2.20;;;;;;;;;;5051331;28;20890;-33
2022/05/07 11:23:46;;;;;;;4.10;2.27;;;;;;;;;;5051527;28;20209;-34
2022/05/07 11:26:15;;;;;;;3.23;2.20;;;;;;;;;;5052331;28;20253;-33
2022/05/07 11:28:43;;;;;;;3.20;2.20;;;;;;;;;;5049250;28;20655;-33
2022/05/07 11:31:11;;;;;;;2.83;2.43;;;;;;;;;;5051767;28;20276;-35
2022/05/07 11:33:38;;;;;;;2.07;1.63;;;;;;;;;;5049363;28;20259;-34
2022/05/07 11:36:08;;;;;;;4.83;1.80;;;;;;;;;;5057017;28;20236;-39
2022/05/07 11:38:35;;;;;;;2.10;1.93;;;;;;;;;;5043053;28;20207;-36
2022/05/07 11:41:12;;;;;;;2.97;2.10;;;;;;;;;;5051490;28;20217;-35
2022/05/07 11:46:24;;;;;;;2.30;2.10;;;;;;;;;;5051724;28;20243;-32
2022/05/07 11:48:51;;;;;;;4.67;2.17;;;;;;;;;;5049972;28;20206;-35
2022/05/07 11:51:26;;;;;;;2.63;1.90;;;;;;;;;;5051248;28;20280;-37
2022/05/07 11:53:54;;;;;;;1.97;1.73;;;;;;;;;;5050250;28;20205;-32
2022/05/07 11:56:21;;;;;;;2.00;1.90;;;;;;;;;;5048182;28;20221;-35
2022/05/07 11:58:49;;;;;;;2.57;2.37;;;;;;;;;;5048606;28;20204;-35
2022/05/07 12:01:21;;;;;;;1.83;1.73;;;;;;;;;;5051671;28;20216;-37
2022/05/07 12:03:48;;;;;;;2.63;2.07;;;;;;;;;;5052280;28;20212;-35
2022/05/07 12:06:25;;;;;;;2.80;2.17;;;;;;;;;;5046570;28;20237;-32
2022/05/07 12:08:52;;;;;;;2.03;1.83;;;;;;;;;;5050971;28;20224;-34
2022/05/07 12:11:20;;;;;;;4.10;1.80;;;;;;;;;;5049156;28;20221;-35
2022/05/07 12:13:47;;;;;;;2.53;1.80;;;;;;;;;;5049320;28;20212;-36
2022/05/07 12:18:59;;;;;;;5.03;1.60;;;;;;;;;;5052255;28;20193;-32
2022/05/07 12:29:50;;;;;;;2.07;1.90;;;;;;;;;;5051293;28;20206;-39
2022/05/07 12:32:17;;;;;;;3.37;1.73;;;;;;;;;;5055562;28;20225;-35
2022/05/07 12:34:45;;;;;;;4.30;1.90;;;;;;;;;;5054138;28;20227;-33
2022/05/07 12:37:13;;;;;;;2.83;1.83;;;;;;;;;;5055300;28;20491;-37
2022/05/07 12:39:40;;;;;;;2.90;1.73;;;;;;;;;;5050628;28;20222;-38
2022/05/07 12:42:08;;;;;;;4.27;2.20;;;;;;;;;;5053803;28;20885;-32
2022/05/07 12:44:36;;;;;;;3.07;2.00;;;;;;;;;;5048050;28;20215;-33
2022/05/07 12:47:05;;;;;;;3.53;1.80;;;;;;;;;;5054264;28;20237;-36
2022/05/07 12:49:41;;;;;;;2.33;2.10;;;;;;;;;;5052363;28;20206;-37
2022/05/07 12:52:09;;;;;;;2.10;1.90;;;;;;;;;;5049326;28;20242;-37
2022/05/07 12:54:39;;;;;;;3.27;2.10;;;;;;;;;;5052819;28;20318;-39
2022/05/07 12:57:06;;;;;;;2.80;1.83;;;;;;;;;;5052560;28;20378;-34
2022/05/07 12:59:33;;;;;;;2.33;1.90;;;;;;;;;;5053166;28;20202;-37
2022/05/07 13:02:03;;;;;;;3.07;1.70;;;;;;;;;;5051410;28;20202;-35
2022/05/07 13:04:30;;;;;;;1.97;1.70;;;;;;;;;;5049567;28;20203;-38
2022/05/07 13:06:58;;;;;;;2.17;1.73;;;;;;;;;;5049423;28;20306;-35
2022/05/07 13:09:25;;;;;;;1.80;1.70;;;;;;;;;;5054337;28;20229;-36
2022/05/07 13:11:54;;;;;;;1.83;1.70;;;;;;;;;;5048881;28;20234;-35
2022/05/07 13:14:21;;;;;;;2.40;2.20;;;;;;;;;;5054030;28;20644;-38
2022/05/07 13:16:49;;;;;;;4.03;1.67;;;;;;;;;;5054558;28;20223;-37
2022/05/07 13:19:16;;;;;;;2.47;1.87;;;;;;;;;;5051717;28;20204;-38
2022/05/07 13:21:44;;;;;;;1.90;1.70;;;;;;;;;;5051252;28;20200;-33
2022/05/07 13:24:12;;;;;;;9.27;2.53;;;;;;;;;;5050526;28;20230;-34
2022/05/07 13:26:39;;;;;;;3.03;2.03;;;;;;;;;;5049466;28;20980;-37
2022/05/07 13:29:09;;;;;;;2.10;1.87;;;;;;;;;;5054095;28;20208;-37
2022/05/07 13:31:37;;;;;;;3.60;1.90;;;;;;;;;;5054344;28;20206;-31
2022/05/07 13:34:05;;;;;;;3.50;2.23;;;;;;;;;;5054066;28;20257;-36
2022/05/07 13:36:32;;;;;;;2.50;1.90;;;;;;;;;;5048894;28;20226;-33
2022/05/07 13:39:01;;;;;;;2.23;1.80;;;;;;;;;;5051150;28;20208;-33
2022/05/07 13:41:28;;;;;;;2.20;1.83;;;;;;;;;;5039208;28;20543;-38
2022/05/07 13:43:56;;;;;;;2.27;1.83;;;;;;;;;;5047727;28;20207;-37
2022/05/07 13:46:24;;;;;;;3.27;1.90;;;;;;;;;;5052429;28;20227;-33
2022/05/07 13:48:51;;;;;;;1.80;1.70;;;;;;;;;;5053021;28;20206;-35
2022/05/07 13:51:20;;;;;;;2.40;2.20;;;;;;;;;;5041061;28;20258;-34
2022/05/07 13:53:47;;;;;;;4.30;1.83;;;;;;;;;;5045910;28;20238;-40
2022/05/07 13:56:15;;;;;;;2.20;1.80;;;;;;;;;;5049903;28;20255;-34
2022/05/07 13:58:42;;;;;;;2.10;1.90;;;;;;;;;;5054866;28;20513;-35
2022/05/07 14:01:09;;;;;;;2.30;2.03;;;;;;;;;;5053586;28;20207;-40
2022/05/07 14:03:39;;;;;;;1.93;1.80;;;;;;;;;;5051904;28;20203;-37
2022/05/07 14:06:06;;;;;;;3.03;2.20;;;;;;;;;;5048421;28;20420;-38
2022/05/07 14:08:33;;;;;;;2.93;2.37;;;;;;;;;;5052039;28;20207;-32
2022/05/07 14:11:01;;;;;;;3.43;2.10;;;;;;;;;;5050611;28;20305;-36
2022/05/07 14:13:28;;;;;;;4.43;2.40;;;;;;;;;;5051486;28;20327;-36
2022/05/07 14:15:55;;;;;;;3.33;2.10;;;;;;;;;;5053074;28;20223;-35
2022/05/07 14:18:22;;;;;;;2.90;2.53;;;;;;;;;;5053137;28;20223;-34
2022/05/07 14:20:51;;;;;;;2.30;2.10;;;;;;;;;;5052315;28;20285;-35
2022/05/07 14:23:18;;;;;;;3.50;2.27;;;;;;;;;;5044412;28;20194;-30
2022/05/07 14:25:45;;;;;;;5.37;3.00;;;;;;;;;;5046195;28;20225;-33
2022/05/07 14:28:12;;;;;;;4.90;2.80;;;;;;;;;;5050995;28;20217;-34
2022/05/07 14:30:40;;;;;;;4.00;2.37;;;;;;;;;;5052825;28;20233;-38
2022/05/07 14:33:08;;;;;;;5.60;2.77;;;;;;;;;;5053835;28;20220;-34
2022/05/07 14:35:35;;;;;;;2.90;2.60;;;;;;;;;;5053254;28;20287;-34
2022/05/07 14:38:06;;;;;;;3.37;3.03;;;;;;;;;;5050919;28;20219;-34
2022/05/07 14:40:33;;;;;;;5.63;2.80;;;;;;;;;;5052945;28;20216;-31
2022/05/07 14:43:02;;;;;;;4.10;2.53;;;;;;;;;;5048534;28;20241;-35
2022/05/07 14:45:29;;;;;;;4.97;2.80;;;;;;;;;;5051326;28;20229;-36
2022/05/07 14:47:57;;;;;;;2.60;2.40;;;;;;;;;;5051796;28;20203;-32
2022/05/07 14:50:24;;;;;;;3.67;3.17;;;;;;;;;;5048557;28;20297;-39
2022/05/07 14:52:52;;;;;;;3.30;2.90;;;;;;;;;;5049617;28;20230;-35
2022/05/07 14:55:21;;;;;;;4.27;2.83;;;;;;;;;;5051112;28;20227;-33
2022/05/07 14:57:48;;;;;;;4.20;2.80;;;;;;;;;;5051585;28;20209;-40
2022/05/07 15:00:16;;;;;;;3.00;2.70;;;;;;;;;;5047366;28;20203;-39
2022/05/07 15:02:46;;;;;;;3.07;2.80;;;;;;;;;;5049528;28;20202;-40
2022/05/07 15:05:14;;;;;;;3.63;3.10;;;;;;;;;;5056913;28;20644;-35
2022/05/07 15:07:41;;;;;;;3.70;2.80;;;;;;;;;;5046980;28;20207;-37
2022/05/07 15:12:55;;;;;;;4.87;2.97;;;;;;;;;;5051238;28;20264;-34
2022/05/07 15:15:23;;;;;;;3.00;2.77;;;;;;;;;;5048053;28;20214;-37
2022/05/07 15:17:50;;;;;;;3.37;3.00;;;;;;;;;;5050193;28;20213;-37
2022/05/07 15:20:17;;;;;;;6.37;3.10;;;;;;;;;;5050816;28;20227;-31
2022/05/07 15:22:44;;;;;;;3.53;2.90;;;;;;;;;;5042088;28;20205;-32
2022/05/07 15:25:15;;;;;;;3.10;2.83;;;;;;;;;;5050988;28;20206;-35
2022/05/07 15:27:42;;;;;;;4.07;3.77;;;;;;;;;;5044980;28;20245;-35
2022/05/07 15:30:11;;;;;;;3.63;3.17;;;;;;;;;;5050593;28;20207;-34
2022/05/07 15:38:08;;;;;;;3.67;3.37;;;;;;;;;;5051351;28;20209;-33
2022/05/07 15:40:35;;;;;;;3.80;3.50;;;;;;;;;;5049702;28;20202;-37
2022/05/07 15:43:02;;;;;;;3.57;3.20;;;;;;;;;;5050891;28;20207;-32